Time;durP1;ratioP1;P1;durP2;ratioP2;P2;SDS_P1;SDS_P2;PMS_P1;PMS_P2;Temp;Humidity;BMP_temperature;BMP_pressure;BME280_temperature;BME280_humidity;BME280_pressure;Samples;Min_cycle;Max_cycle;Signal;HPM_P1;HPM_P2
2023/06/05 00:01:03;;;;;;;10.63;4.28;;;13.00;99.90;;;;;;5093082;28;20050;-57
2023/06/05 00:03:29;;;;;;;5.78;3.85;;;13.00;99.90;;;;;;5092806;28;20557;-57
2023/06/05 00:05:55;;;;;;;6.30;4.00;;;13.00;99.90;;;;;;5092976;28;20521;-57
2023/06/05 00:08:21;;;;;;;6.88;4.15;;;12.90;99.90;;;;;;5092810;28;20075;-57
2023/06/05 00:10:47;;;;;;;5.75;4.00;;;12.90;99.90;;;;;;5093029;28;20063;-57
2023/06/05 00:13:12;;;;;;;6.25;4.10;;;12.90;99.90;;;;;;5092412;28;20083;-57
2023/06/05 00:15:38;;;;;;;11.77;4.38;;;12.80;99.90;;;;;;5092527;28;20091;-58
2023/06/05 00:18:05;;;;;;;5.35;3.63;;;12.90;99.90;;;;;;5125784;28;20068;-57
2023/06/05 00:20:30;;;;;;;5.90;3.42;;;12.80;99.90;;;;;;5092599;28;20036;-56
2023/06/05 00:22:56;;;;;;;7.18;3.53;;;13.00;99.90;;;;;;5092351;28;20036;-57
2023/06/05 00:25:22;;;;;;;5.95;3.70;;;13.00;99.90;;;;;;5092693;28;20036;-56
2023/06/05 00:27:47;;;;;;;7.22;3.97;;;12.90;99.90;;;;;;5092914;28;20028;-57
2023/06/05 00:30:14;;;;;;;5.82;3.50;;;12.90;99.90;;;;;;5092360;28;20402;-58
2023/06/05 00:32:40;;;;;;;4.43;3.50;;;12.90;99.90;;;;;;5093309;28;20468;-58
2023/06/05 00:35:07;;;;;;;5.15;3.40;;;12.90;99.90;;;;;;5096436;28;20132;-58
2023/06/05 00:37:37;;;;;;;4.00;3.30;;;12.90;99.90;;;;;;5087594;28;20036;-58
2023/06/05 00:40:04;;;;;;;4.70;3.90;;;12.90;99.90;;;;;;5096469;28;20044;-59
2023/06/05 00:42:29;;;;;;;5.15;3.50;;;12.90;99.90;;;;;;5095173;28;20083;-58
2023/06/05 00:44:55;;;;;;;7.53;3.50;;;13.00;99.90;;;;;;5083421;28;20071;-59
2023/06/05 00:47:21;;;;;;;4.90;4.10;;;12.90;99.90;;;;;;5096340;28;20077;-57
2023/06/05 00:49:48;;;;;;;5.25;3.80;;;13.00;99.90;;;;;;5096082;28;20085;-58
2023/06/05 00:52:14;;;;;;;5.90;3.72;;;13.00;99.90;;;;;;5096019;28;20440;-56
2023/06/05 00:54:40;;;;;;;6.88;3.95;;;13.00;99.90;;;;;;5095411;28;20487;-57
2023/06/05 00:57:07;;;;;;;5.70;3.50;;;13.00;99.90;;;;;;5096212;28;20051;-57
2023/06/05 00:59:34;;;;;;;7.13;3.58;;;13.00;99.90;;;;;;5095878;28;20047;-57
2023/06/05 01:02:02;;;;;;;5.53;4.40;;;13.00;99.90;;;;;;5095947;28;20094;-56
2023/06/05 01:04:28;;;;;;;6.68;3.72;;;13.00;99.90;;;;;;5067811;28;20036;-57
2023/06/05 01:06:57;;;;;;;4.30;3.17;;;13.00;99.90;;;;;;5096085;28;20036;-57
2023/06/05 01:09:26;;;;;;;4.78;3.60;;;13.10;99.90;;;;;;5095818;28;20039;-57
2023/06/05 01:12:39;;;;;;;5.95;3.92;;;13.00;99.90;;;;;;5095974;28;20040;-57
2023/06/05 01:15:07;;;;;;;5.78;3.97;;;13.10;99.90;;;;;;5012670;28;20050;-57
2023/06/05 01:17:34;;;;;;;8.90;3.50;;;13.00;99.90;;;;;;5033085;28;20046;-57
2023/06/05 01:20:04;;;;;;;6.43;3.75;;;13.00;99.90;;;;;;5033316;28;20084;-57
2023/06/05 01:22:30;;;;;;;6.15;3.60;;;13.00;99.90;;;;;;5033146;28;20435;-58
2023/06/05 01:24:57;;;;;;;5.53;3.78;;;13.00;99.90;;;;;;5033280;28;20103;-57
2023/06/05 01:27:28;;;;;;;6.18;3.50;;;13.00;99.90;;;;;;5016580;28;20041;-57
2023/06/05 01:30:36;;;;;;;6.45;4.03;;;13.10;99.90;;;;;;5032877;28;20041;-57
2023/06/05 01:33:13;;;;;;;5.57;3.63;;;13.10;99.90;;;;;;5032871;28;20064;-57
2023/06/05 01:35:41;;;;;;;8.90;4.50;;;13.00;99.90;;;;;;5016536;28;20053;-57
2023/06/05 01:38:09;;;;;;;6.53;3.88;;;13.00;99.90;;;;;;5032740;28;20045;-58
2023/06/05 01:40:36;;;;;;;7.28;4.28;;;13.00;99.90;;;;;;5016392;28;20041;-57
2023/06/05 01:43:03;;;;;;;7.05;3.80;;;13.00;99.90;;;;;;5031862;28;20049;-57
2023/06/05 01:45:30;;;;;;;7.80;4.22;;;12.90;99.90;;;;;;5032388;28;20048;-56
2023/06/05 01:47:57;;;;;;;6.72;3.92;;;12.90;99.90;;;;;;5032944;28;20053;-56
2023/06/05 01:50:23;;;;;;;7.30;3.63;;;12.90;99.90;;;;;;5055200;28;20048;-58
2023/06/05 01:52:49;;;;;;;5.00;3.78;;;12.90;99.90;;;;;;5092430;28;20086;-57
2023/06/05 01:55:20;;;;;;;6.82;4.50;;;12.90;99.90;;;;;;5092489;28;20391;-58
2023/06/05 01:57:46;;;;;;;6.85;3.90;;;12.80;99.90;;;;;;5092572;28;20047;-57
2023/06/05 02:00:15;;;;;;;6.00;3.83;;;12.80;99.90;;;;;;5092603;28;20047;-57
2023/06/05 02:02:42;;;;;;;6.82;4.10;;;12.80;99.90;;;;;;5092279;28;20032;-57
2023/06/05 02:05:12;;;;;;;7.60;4.43;;;12.90;99.90;;;;;;5092402;28;20039;-57
2023/06/05 02:07:47;;;;;;;7.85;4.05;;;12.80;99.90;;;;;;5094258;28;20443;-57
2023/06/05 02:10:13;;;;;;;7.50;4.13;;;12.80;99.90;;;;;;5094398;28;20088;-56
2023/06/05 02:12:41;;;;;;;5.80;3.47;;;12.80;99.90;;;;;;5094692;28;20119;-55
2023/06/05 02:15:08;;;;;;;7.53;3.92;;;12.80;99.90;;;;;;5094450;28;20138;-57
2023/06/05 02:17:34;;;;;;;5.47;4.32;;;12.80;99.90;;;;;;5094488;28;20032;-57
2023/06/05 02:20:00;;;;;;;9.45;4.30;;;12.80;99.90;;;;;;5094360;28;20047;-57
2023/06/05 02:22:26;;;;;;;4.35;3.65;;;12.90;99.90;;;;;;5127315;27;20321;-57
2023/06/05 02:24:51;;;;;;;6.07;4.10;;;12.90;99.90;;;;;;5094128;28;20473;-57
2023/06/05 02:27:17;;;;;;;7.53;4.32;;;12.90;99.90;;;;;;5093053;28;20062;-58
2023/06/05 02:29:43;;;;;;;7.18;4.47;;;12.90;99.90;;;;;;5094424;28;20044;-57
2023/06/05 02:32:09;;;;;;;7.72;5.00;;;12.80;99.90;;;;;;5094486;28;20037;-59
2023/06/05 02:34:35;;;;;;;7.07;4.70;;;12.90;99.90;;;;;;5094360;28;20386;-57
2023/06/05 02:37:01;;;;;;;8.43;4.40;;;12.90;99.90;;;;;;5094203;28;20036;-58
2023/06/05 02:39:27;;;;;;;6.43;4.07;;;12.90;99.90;;;;;;5093966;28;20032;-57
2023/06/05 02:41:53;;;;;;;7.40;4.32;;;13.00;99.90;;;;;;5094029;28;20040;-58
2023/06/05 02:44:19;;;;;;;6.45;3.80;;;12.90;99.90;;;;;;5094029;28;20381;-57
2023/06/05 02:46:45;;;;;;;5.75;3.53;;;12.90;99.90;;;;;;5094067;28;20114;-57
2023/06/05 02:49:10;;;;;;;6.85;4.10;;;12.90;99.90;;;;;;5094430;28;20036;-57
2023/06/05 02:51:36;;;;;;;4.82;3.80;;;12.90;99.90;;;;;;5093809;28;20060;-57
2023/06/05 02:54:02;;;;;;;6.53;4.47;;;12.80;99.90;;;;;;5093644;28;20052;-58
2023/06/05 02:56:29;;;;;;;6.07;4.28;;;12.80;99.90;;;;;;5093479;28;20431;-57
2023/06/05 02:58:56;;;;;;;8.13;5.07;;;12.80;99.90;;;;;;5093855;28;20390;-57
2023/06/05 03:01:22;;;;;;;8.48;4.80;;;12.80;99.90;;;;;;5093905;28;20436;-57
2023/06/05 03:03:48;;;;;;;5.95;4.05;;;12.80;99.90;;;;;;5093566;28;20036;-56
2023/06/05 03:06:17;;;;;;;9.23;5.03;;;12.80;99.90;;;;;;5093680;28;20044;-57
2023/06/05 03:08:43;;;;;;;6.05;4.30;;;12.80;99.90;;;;;;5075227;28;20505;-57
2023/06/05 03:11:09;;;;;;;6.43;4.80;;;12.80;99.90;;;;;;5093640;28;20035;-57
2023/06/05 03:13:35;;;;;;;8.13;4.10;;;12.70;99.90;;;;;;5093539;28;20043;-57
2023/06/05 03:16:03;;;;;;;6.40;3.97;;;12.70;99.90;;;;;;5093441;28;20123;-58
2023/06/05 03:18:29;;;;;;;8.30;4.47;;;12.70;99.90;;;;;;5093352;28;20044;-57
2023/06/05 03:20:56;;;;;;;5.53;4.10;;;12.70;99.90;;;;;;5093352;28;20040;-57
2023/06/05 03:23:27;;;;;;;6.43;4.18;;;12.70;99.90;;;;;;5092857;28;20036;-57
2023/06/05 03:25:53;;;;;;;4.38;3.85;;;12.80;99.90;;;;;;5126611;27;20087;-57
2023/06/05 03:28:20;;;;;;;6.38;3.85;;;12.70;99.90;;;;;;5126077;27;20075;-58
2023/06/05 03:30:46;;;;;;;6.22;3.83;;;12.70;99.90;;;;;;5093155;28;20505;-57
2023/06/05 03:33:13;;;;;;;6.45;3.63;;;12.70;99.90;;;;;;5093140;28;20064;-57
2023/06/05 03:35:40;;;;;;;4.53;3.65;;;12.70;99.90;;;;;;5093211;28;20076;-57
2023/06/05 03:38:05;;;;;;;8.95;3.83;;;12.70;99.90;;;;;;5109070;28;20032;-57
2023/06/05 03:40:31;;;;;;;8.48;4.20;;;12.70;99.90;;;;;;5092830;28;20376;-57
2023/06/05 03:42:57;;;;;;;4.97;3.72;;;12.80;99.90;;;;;;5093065;28;20085;-57
2023/06/05 03:45:26;;;;;;;5.88;4.15;;;12.70;99.90;;;;;;5091901;28;20109;-57
2023/06/05 03:47:52;;;;;;;5.45;3.72;;;13.00;99.90;;;;;;5092902;28;20089;-57
2023/06/05 03:50:18;;;;;;;4.72;3.65;;;12.70;99.90;;;;;;5108239;28;20056;-57
2023/06/05 03:52:43;;;;;;;6.30;3.80;;;12.70;99.90;;;;;;5093178;28;20360;-56
2023/06/05 03:55:09;;;;;;;5.75;4.25;;;12.60;99.90;;;;;;5092465;28;20052;-57
2023/06/05 03:57:38;;;;;;;4.88;4.15;;;12.70;99.90;;;;;;5093003;28;20067;-57
2023/06/05 04:00:10;;;;;;;5.72;4.03;;;12.70;99.90;;;;;;5092921;28;20111;-58
2023/06/05 04:02:36;;;;;;;5.65;4.05;;;12.60;99.90;;;;;;5092865;28;20063;-57
2023/06/05 04:05:03;;;;;;;5.18;3.55;;;12.70;99.90;;;;;;5092624;28;20059;-58
2023/06/05 04:07:29;;;;;;;6.50;4.50;;;12.70;99.90;;;;;;5094967;28;20133;-56
2023/06/05 04:09:55;;;;;;;6.78;4.47;;;12.80;99.90;;;;;;5096962;28;20371;-56
2023/06/05 04:12:21;;;;;;;8.00;4.63;;;12.80;99.90;;;;;;5096740;28;20044;-57
2023/06/05 04:14:47;;;;;;;8.40;4.80;;;12.90;99.90;;;;;;5129208;27;20056;-58
2023/06/05 04:17:15;;;;;;;6.38;4.15;;;12.90;99.90;;;;;;5078160;28;20526;-56
2023/06/05 04:19:41;;;;;;;5.55;4.50;;;13.00;99.90;;;;;;5096802;28;20031;-58
2023/06/05 04:22:07;;;;;;;11.13;5.00;;;13.00;99.90;;;;;;5096831;28;20553;-57
2023/06/05 04:24:32;;;;;;;8.88;5.07;;;13.00;99.90;;;;;;5096449;28;20035;-57
2023/06/05 04:27:00;;;;;;;6.28;4.68;;;13.00;99.90;;;;;;5096716;28;20036;-58
2023/06/05 04:29:26;;;;;;;5.15;4.45;;;13.00;99.90;;;;;;5096667;28;20040;-58
2023/06/05 04:31:53;;;;;;;4.97;4.00;;;13.10;99.90;;;;;;5096689;28;20032;-57
2023/06/05 04:34:19;;;;;;;12.40;4.70;;;13.00;99.90;;;;;;5095041;28;20043;-57
2023/06/05 04:36:45;;;;;;;4.20;3.75;;;13.00;99.90;;;;;;5096717;28;20059;-57
2023/06/05 04:39:18;;;;;;;7.30;4.30;;;13.10;99.90;;;;;;5096324;28;20474;-57
2023/06/05 04:41:45;;;;;;;4.65;4.10;;;13.20;99.90;;;;;;5095370;28;20441;-58
2023/06/05 04:44:16;;;;;;;8.55;4.85;;;13.10;99.90;;;;;;5096173;28;20044;-57
2023/06/05 04:46:45;;;;;;;3.88;3.47;;;13.10;99.90;;;;;;5094768;28;20110;-57
2023/06/05 04:49:12;;;;;;;6.68;3.80;;;13.20;99.90;;;;;;5096381;28;20378;-57
2023/06/05 04:51:38;;;;;;;3.92;3.45;;;13.20;99.90;;;;;;5094709;28;20071;-57
2023/06/05 04:54:05;;;;;;;4.07;3.22;;;13.20;99.90;;;;;;5096004;28;20097;-57
2023/06/05 04:56:32;;;;;;;4.70;3.00;;;13.30;99.90;;;;;;5096006;28;20505;-58
2023/06/05 04:58:59;;;;;;;3.80;2.95;;;13.40;99.90;;;;;;5095793;28;20525;-57
2023/06/05 05:01:25;;;;;;;4.18;3.00;;;13.40;99.90;;;;;;5129019;27;20080;-57
2023/06/05 05:03:51;;;;;;;2.70;2.35;;;13.40;99.90;;;;;;5096201;28;20028;-57
2023/06/05 05:06:17;;;;;;;2.80;2.50;;;13.40;99.90;;;;;;5094773;28;20047;-57
2023/06/05 05:08:48;;;;;;;3.08;2.28;;;13.50;99.90;;;;;;5095470;28;20036;-57
2023/06/05 05:11:14;;;;;;;3.38;2.53;;;13.50;99.90;;;;;;5095789;28;20036;-58
2023/06/05 05:13:40;;;;;;;3.33;2.80;;;13.60;99.90;;;;;;5095865;28;20394;-58
2023/06/05 05:16:07;;;;;;;3.22;2.25;;;13.60;99.90;;;;;;5095569;28;20490;-57
2023/06/05 05:18:34;;;;;;;4.18;2.28;;;13.60;99.90;;;;;;5094169;28;20123;-58
2023/06/05 05:21:00;;;;;;;3.22;2.63;;;13.60;99.90;;;;;;5095679;28;20043;-57
2023/06/05 05:23:26;;;;;;;2.83;2.53;;;13.60;99.90;;;;;;5095697;28;20089;-57
2023/06/05 05:25:52;;;;;;;4.30;2.47;;;13.70;99.90;;;;;;5095739;28;20071;-56
2023/06/05 05:28:18;;;;;;;5.53;2.38;;;13.70;99.90;;;;;;5094090;28;20031;-56
2023/06/05 05:30:43;;;;;;;3.03;2.30;;;13.80;99.90;;;;;;5094474;28;20456;-58
2023/06/05 05:33:09;;;;;;;3.55;2.30;;;13.90;99.90;;;;;;5095418;28;20051;-58
2023/06/05 05:35:35;;;;;;;5.63;2.03;;;13.90;99.90;;;;;;5095186;28;20054;-58
2023/06/05 05:38:01;;;;;;;2.63;2.10;;;13.90;99.90;;;;;;5095218;28;20040;-57
2023/06/05 05:40:26;;;;;;;3.67;2.20;;;13.90;99.90;;;;;;5127168;27;20045;-57
2023/06/05 05:42:52;;;;;;;3.85;2.20;;;13.90;99.90;;;;;;5095391;28;20040;-57
2023/06/05 05:45:18;;;;;;;2.20;2.00;;;14.00;99.90;;;;;;5095363;28;20036;-57
2023/06/05 05:47:43;;;;;;;2.85;2.05;;;14.00;99.90;;;;;;5095129;28;20051;-56
2023/06/05 05:50:09;;;;;;;4.63;2.17;;;14.10;99.90;;;;;;5095088;28;20107;-56
2023/06/05 05:52:36;;;;;;;3.35;2.20;;;14.10;99.90;;;;;;5127892;27;20083;-57
2023/06/05 05:55:03;;;;;;;1.90;1.70;;;14.20;99.90;;;;;;5094695;28;20083;-57
2023/06/05 05:57:29;;;;;;;5.15;2.38;;;14.10;99.90;;;;;;5094911;28;20032;-57
2023/06/05 05:59:55;;;;;;;3.60;2.10;;;14.10;99.90;;;;;;5095070;28;20109;-58
2023/06/05 06:02:21;;;;;;;2.30;1.90;;;14.10;99.90;;;;;;5094835;28;20111;-58
2023/06/05 06:04:47;;;;;;;3.97;1.98;;;14.10;99.90;;;;;;5094973;28;20123;-57
2023/06/05 06:07:13;;;;;;;3.33;1.70;;;14.10;99.90;;;;;;5094778;28;20063;-58
2023/06/05 06:09:39;;;;;;;2.05;1.83;;;14.20;99.90;;;;;;5094939;28;20043;-58
2023/06/05 06:12:10;;;;;;;3.97;1.80;;;14.20;99.90;;;;;;5094316;28;20118;-58
2023/06/05 06:14:35;;;;;;;4.90;1.88;;;14.30;99.90;;;;;;5094605;28;20490;-58
2023/06/05 06:17:02;;;;;;;3.28;1.77;;;14.30;99.90;;;;;;5094433;28;20115;-59
2023/06/05 06:19:28;;;;;;;2.90;1.90;;;14.30;99.90;;;;;;5094431;28;20044;-56
2023/06/05 06:21:55;;;;;;;2.78;1.90;;;14.40;99.90;;;;;;5094276;28;20097;-56
2023/06/05 06:24:21;;;;;;;4.60;2.05;;;14.50;99.90;;;;;;5094069;28;20040;-56
2023/06/05 06:26:48;;;;;;;3.25;2.15;;;14.50;99.90;;;;;;5094109;28;20051;-57
2023/06/05 06:29:23;;;;;;;3.97;2.33;;;14.40;99.90;;;;;;5093835;28;20051;-58
2023/06/05 06:31:49;;;;;;;4.05;2.08;;;14.40;99.90;;;;;;5094467;28;20044;-57
2023/06/05 06:34:16;;;;;;;1.92;1.73;;;14.40;99.90;;;;;;5094114;28;20071;-56
2023/06/05 06:36:43;;;;;;;3.03;1.80;;;14.40;99.90;;;;;;5092776;28;20069;-57
2023/06/05 06:39:10;;;;;;;2.20;2.00;;;14.60;99.90;;;;;;5093811;28;20040;-56
2023/06/05 06:41:37;;;;;;;3.58;1.70;;;14.90;99.90;;;;;;5094164;28;20032;-57
2023/06/05 06:44:03;;;;;;;2.00;1.80;;;15.20;99.90;;;;;;5094206;28;20036;-56
2023/06/05 06:46:29;;;;;;;3.28;1.95;;;15.30;99.90;;;;;;5093985;28;20039;-57
2023/06/05 06:48:55;;;;;;;3.03;2.00;;;15.60;99.90;;;;;;5093926;28;20509;-58
2023/06/05 06:51:22;;;;;;;2.42;1.70;;;15.90;99.90;;;;;;5094009;28;20040;-57
2023/06/05 06:53:47;;;;;;;3.65;2.00;;;16.00;99.90;;;;;;5093609;28;20056;-58
2023/06/05 06:56:15;;;;;;;2.38;1.70;;;16.10;99.90;;;;;;5094144;28;20055;-58
2023/06/05 06:58:42;;;;;;;3.05;1.90;;;16.00;99.90;;;;;;5126573;27;20049;-57
2023/06/05 07:01:07;;;;;;;3.05;2.15;;;16.10;99.90;;;;;;5093826;28;20040;-56
2023/06/05 07:03:33;;;;;;;2.17;1.95;;;16.40;99.90;;;;;;5093464;28;20073;-57
2023/06/05 07:05:58;;;;;;;3.50;2.38;;;16.40;99.90;;;;;;5093333;28;20036;-57
2023/06/05 07:08:24;;;;;;;3.95;2.42;;;16.60;99.90;;;;;;5093495;28;20043;-57
2023/06/05 07:10:51;;;;;;;4.35;2.33;;;16.60;99.90;;;;;;5093663;28;20095;-56
2023/06/05 07:13:16;;;;;;;2.50;2.30;;;16.50;99.90;;;;;;5092643;28;20052;-57
2023/06/05 07:15:42;;;;;;;3.60;2.38;;;16.70;99.90;;;;;;5093293;28;20493;-57
2023/06/05 07:18:10;;;;;;;3.28;2.22;;;16.80;99.90;;;;;;5093695;28;20047;-57
2023/06/05 07:20:39;;;;;;;2.55;2.25;;;17.20;99.90;;;;;;5093263;28;20047;-57
2023/06/05 07:23:05;;;;;;;2.65;2.22;;;17.40;99.90;;;;;;5093599;28;20043;-58
2023/06/05 07:25:31;;;;;;;3.83;2.50;;;17.50;99.90;;;;;;5092130;28;20051;-58
2023/06/05 07:27:59;;;;;;;3.80;2.30;;;17.90;99.90;;;;;;5093700;28;20459;-58
2023/06/05 07:30:28;;;;;;;2.78;2.20;;;18.00;99.90;;;;;;5093543;28;20048;-57
2023/06/05 07:32:55;;;;;;;2.50;2.05;;;18.10;99.90;;;;;;5093005;28;20058;-56
2023/06/05 07:35:21;;;;;;;4.35;2.40;;;18.50;99.90;;;;;;5093421;28;20084;-57
2023/06/05 07:37:47;;;;;;;4.25;2.40;;;18.60;99.90;;;;;;5093263;28;20393;-57
2023/06/05 07:40:12;;;;;;;3.97;2.67;;;18.60;99.90;;;;;;5092967;28;20089;-57
2023/06/05 07:42:38;;;;;;;4.32;2.63;;;18.30;99.90;;;;;;5092306;28;20086;-58
2023/06/05 07:45:05;;;;;;;4.47;2.45;;;18.00;99.90;;;;;;5093173;28;20040;-57
2023/06/05 07:47:31;;;;;;;4.95;2.55;;;18.20;99.90;;;;;;5093076;28;20032;-57
2023/06/05 07:50:01;;;;;;;6.60;2.28;;;18.20;99.90;;;;;;5092967;28;20128;-57
2023/06/05 07:52:30;;;;;;;2.88;2.58;;;18.00;99.90;;;;;;5093023;28;20508;-57
2023/06/05 07:54:56;;;;;;;6.32;2.53;;;18.30;99.90;;;;;;5092582;28;20062;-57
2023/06/05 07:57:23;;;;;;;5.07;2.60;;;18.30;99.90;;;;;;5092836;28;20036;-58
2023/06/05 07:59:50;;;;;;;4.10;2.60;;;18.60;99.90;;;;;;5092912;28;20044;-57
2023/06/05 08:02:19;;;;;;;4.38;2.40;;;18.90;99.90;;;;;;5125809;28;20064;-57
2023/06/05 08:04:45;;;;;;;3.00;2.28;;;18.90;99.90;;;;;;5092765;28;20051;-58
2023/06/05 08:07:11;;;;;;;4.35;2.63;;;18.90;99.90;;;;;;5093082;28;20142;-57
2023/06/05 08:09:37;;;;;;;3.22;2.40;;;18.60;99.90;;;;;;5093265;28;20144;-57
2023/06/05 08:12:06;;;;;;;3.20;2.25;;;18.90;99.90;;;;;;5092969;28;20355;-58
2023/06/05 08:14:34;;;;;;;5.60;2.45;;;19.40;99.90;;;;;;5092876;28;20065;-58
2023/06/05 08:16:59;;;;;;;5.90;2.30;;;19.60;99.90;;;;;;5092811;28;20603;-58
2023/06/05 08:19:25;;;;;;;2.42;2.05;;;19.70;99.90;;;;;;5125416;28;20040;-57
2023/06/05 08:21:53;;;;;;;2.55;2.22;;;20.20;99.90;;;;;;5092990;28;20043;-59
2023/06/05 08:24:20;;;;;;;3.42;1.90;;;20.40;99.90;;;;;;5092828;28;20048;-57
2023/06/05 08:26:45;;;;;;;14.95;3.42;;;20.30;99.90;;;;;;5092523;28;20058;-57
2023/06/05 08:29:12;;;;;;;3.08;2.03;;;20.50;99.90;;;;;;5091256;28;20044;-57
2023/06/05 08:31:37;;;;;;;3.35;2.42;;;20.40;99.90;;;;;;5092346;28;20047;-57
2023/06/05 08:34:05;;;;;;;2.75;2.20;;;20.30;99.90;;;;;;5092681;28;20390;-56
2023/06/05 08:36:32;;;;;;;2.20;1.80;;;20.50;99.90;;;;;;5092594;28;20071;-58
2023/06/05 08:38:58;;;;;;;3.67;2.40;;;20.90;99.90;;;;;;5092412;28;20448;-57
2023/06/05 08:41:24;;;;;;;2.10;1.90;;;21.00;99.90;;;;;;5092798;28;20036;-57
2023/06/05 08:43:50;;;;;;;4.68;2.72;;;21.20;99.90;;;;;;5092771;28;20039;-58
2023/06/05 08:46:17;;;;;;;2.22;2.03;;;20.90;99.90;;;;;;5092053;28;20032;-58
2023/06/05 08:48:46;;;;;;;10.77;2.42;;;21.20;99.90;;;;;;5092477;28;20043;-58
2023/06/05 08:51:16;;;;;;;4.75;2.40;;;21.20;99.90;;;;;;5092352;28;20036;-57
2023/06/05 08:53:54;;;;;;;5.55;2.83;;;21.50;99.90;;;;;;5094899;28;20051;-57
2023/06/05 08:56:20;;;;;;;5.45;2.38;;;21.40;99.90;;;;;;5096258;28;20075;-57
2023/06/05 08:58:48;;;;;;;3.05;2.40;;;21.50;99.90;;;;;;5096043;28;20493;-57
2023/06/05 09:01:13;;;;;;;4.18;2.50;;;21.80;99.90;;;;;;5096378;28;20067;-58
2023/06/05 09:03:39;;;;;;;3.45;2.28;;;21.80;99.90;;;;;;5095694;28;20386;-58
2023/06/05 09:06:05;;;;;;;6.95;2.40;;;21.70;99.90;;;;;;5094775;28;20113;-58
2023/06/05 09:08:34;;;;;;;3.70;2.58;;;21.90;99.90;;;;;;5095901;28;20036;-58
2023/06/05 09:11:26;;;;;;;3.85;2.70;;;21.80;99.90;;;;;;5095942;28;20402;-58
2023/06/05 09:13:57;;;;;;;3.33;2.50;;;22.20;99.90;;;;;;5093946;28;20141;-58
2023/06/05 09:16:40;;;;;;;5.18;2.90;;;22.20;99.90;;;;;;5095856;28;20089;-58
2023/06/05 09:19:06;;;;;;;4.53;2.80;;;22.30;99.90;;;;;;5095319;28;20032;-57
2023/06/05 09:21:32;;;;;;;3.45;2.80;;;22.10;99.90;;;;;;5095523;28;20032;-58
2023/06/05 09:24:16;;;;;;;3.22;2.67;;;22.20;99.90;;;;;;5095260;28;20424;-58
2023/06/05 09:26:58;;;;;;;3.08;2.70;;;22.20;99.90;;;;;;5095667;28;20478;-57
2023/06/05 09:29:28;;;;;;;3.63;2.83;;;22.30;99.90;;;;;;5095585;28;20039;-58
2023/06/05 09:31:58;;;;;;;4.15;2.60;;;22.30;99.90;;;;;;5095513;28;20086;-59
2023/06/05 09:34:27;;;;;;;4.45;2.92;;;22.40;99.90;;;;;;5094939;28;20477;-57
2023/06/05 09:36:54;;;;;;;7.75;3.22;;;22.50;99.90;;;;;;5095285;28;20041;-57
2023/06/05 09:39:21;;;;;;;2.95;2.60;;;21.90;99.90;;;;;;5095080;28;20044;-58
2023/06/05 09:41:49;;;;;;;2.95;2.50;;;21.70;99.90;;;;;;5094951;28;20028;-57
2023/06/05 09:44:15;;;;;;;3.13;2.58;;;21.70;99.90;;;;;;5094903;28;20040;-57
2023/06/05 09:46:54;;;;;;;3.03;2.35;;;21.80;99.90;;;;;;5094980;28;20040;-57
2023/06/05 09:49:31;;;;;;;2.00;1.80;;;21.60;99.90;;;;;;5090666;28;20123;-58
2023/06/05 09:51:59;;;;;;;2.95;2.13;;;21.70;99.90;;;;;;5094843;28;20111;-58
2023/06/05 09:54:29;;;;;;;4.35;2.50;;;21.80;99.90;;;;;;5084699;28;20455;-58
2023/06/05 09:57:00;;;;;;;2.50;2.30;;;21.80;99.90;;;;;;5094427;28;20122;-58
2023/06/05 09:59:29;;;;;;;3.08;2.60;;;22.00;99.90;;;;;;5094506;28;20064;-58
2023/06/05 10:01:56;;;;;;;3.30;2.80;;;21.90;99.90;;;;;;5094802;28;20074;-58
2023/06/05 10:04:25;;;;;;;4.35;2.88;;;22.20;99.90;;;;;;5093678;28;20024;-58
2023/06/05 10:06:54;;;;;;;3.25;2.55;;;22.20;99.90;;;;;;5094520;28;20089;-58
2023/06/05 10:09:21;;;;;;;4.00;2.75;;;22.10;99.90;;;;;;5094363;28;20546;-58
2023/06/05 10:11:50;;;;;;;4.47;2.85;;;22.20;99.90;;;;;;5094426;28;20039;-58
2023/06/05 10:14:17;;;;;;;3.72;3.10;;;22.30;99.90;;;;;;5094417;28;20100;-58
2023/06/05 10:16:44;;;;;;;4.25;2.25;;;22.30;99.90;;;;;;5094532;28;20036;-57
2023/06/05 10:19:12;;;;;;;4.65;2.70;;;22.40;99.90;;;;;;5092397;28;20048;-57
2023/06/05 10:21:38;;;;;;;3.40;2.20;;;22.50;99.90;;;;;;5094557;28;20040;-58
2023/06/05 10:24:14;;;;;;;4.25;2.20;;;22.70;99.90;;;;;;5094468;28;20323;-58
2023/06/05 10:26:52;;;;;;;4.22;2.05;;;23.00;99.90;;;;;;5094528;28;20048;-57
2023/06/05 10:29:55;;;;;;;2.83;2.53;;;23.10;99.90;;;;;;5094246;28;20048;-57
2023/06/05 10:32:29;;;;;;;3.25;2.40;;;23.00;99.90;;;;;;5093894;28;20079;-58
2023/06/05 10:35:36;;;;;;;3.42;2.42;;;22.90;99.90;;;;;;5066069;28;20434;-57
2023/06/05 10:38:20;;;;;;;3.67;2.65;;;23.30;99.90;;;;;;5126873;27;20036;-58
2023/06/05 10:40:54;;;;;;;3.70;2.30;;;23.30;99.90;;;;;;5126748;27;20490;-57
2023/06/05 10:43:47;;;;;;;3.13;1.60;;;23.10;99.90;;;;;;5126174;27;20040;-57
2023/06/05 10:46:33;;;;;;;2.20;2.00;;;23.10;99.90;;;;;;5093441;28;20039;-57
2023/06/05 10:49:07;;;;;;;3.35;2.05;;;22.80;99.90;;;;;;5068082;28;20055;-58
2023/06/05 10:51:37;;;;;;;2.60;2.40;;;23.00;99.90;;;;;;5093673;28;20043;-57
2023/06/05 10:54:04;;;;;;;1.85;1.50;;;23.10;99.90;;;;;;5093249;28;20055;-57
2023/06/05 10:56:56;;;;;;;2.22;1.58;;;23.10;99.90;;;;;;5093716;28;20109;-58
2023/06/05 10:59:40;;;;;;;3.40;1.92;;;23.10;99.90;;;;;;5070946;28;20044;-58
2023/06/05 11:02:08;;;;;;;3.05;2.10;;;23.10;99.90;;;;;;5093302;28;20367;-57
2023/06/05 11:04:55;;;;;;;4.93;2.20;;;23.10;99.90;;;;;;5093286;28;20032;-58
2023/06/05 11:07:29;;;;;;;2.10;1.90;;;22.90;99.90;;;;;;5014817;28;20431;-57
2023/06/05 11:10:20;;;;;;;3.72;2.30;;;22.80;99.90;;;;;;5030926;28;20065;-58
2023/06/05 11:12:45;;;;;;;2.28;2.08;;;23.00;99.90;;;;;;5018467;28;20132;-57
2023/06/05 11:15:12;;;;;;;2.75;2.00;;;22.90;99.90;;;;;;5030978;28;20045;-57
2023/06/05 11:17:39;;;;;;;3.20;2.38;;;23.00;99.90;;;;;;5030622;28;20523;-58
2023/06/05 11:20:10;;;;;;;2.75;2.10;;;23.00;99.90;;;;;;5030751;28;20423;-57
2023/06/05 11:22:53;;;;;;;3.10;1.70;;;23.10;99.90;;;;;;5030396;28;20446;-57
2023/06/05 11:25:26;;;;;;;1.98;1.70;;;23.30;99.90;;;;;;5030668;28;20137;-59
2023/06/05 11:28:01;;;;;;;2.95;2.10;;;23.30;99.90;;;;;;5030721;28;20081;-58
2023/06/05 11:30:32;;;;;;;2.65;2.10;;;23.30;99.90;;;;;;5030324;28;20048;-58
2023/06/05 11:33:08;;;;;;;3.20;1.80;;;23.50;99.90;;;;;;5030759;28;20084;-58
2023/06/05 11:35:37;;;;;;;3.60;2.20;;;23.60;99.90;;;;;;5030951;28;20110;-58
2023/06/05 11:38:11;;;;;;;2.53;1.95;;;23.60;99.90;;;;;;5030480;28;20180;-58
2023/06/05 11:40:37;;;;;;;4.97;1.80;;;23.40;99.90;;;;;;5030526;28;20042;-58
2023/06/05 11:43:07;;;;;;;3.72;1.90;;;23.40;99.90;;;;;;5030179;28;20543;-58
2023/06/05 11:45:35;;;;;;;1.92;1.80;;;23.50;99.90;;;;;;5088904;28;20052;-58
2023/06/05 11:48:09;;;;;;;2.65;2.30;;;23.50;99.90;;;;;;5092899;28;20036;-58
2023/06/05 11:50:35;;;;;;;3.55;1.90;;;23.20;99.90;;;;;;5093090;28;20386;-58
2023/06/05 11:53:09;;;;;;;1.92;1.75;;;23.20;99.90;;;;;;5092819;28;20382;-58
2023/06/05 11:55:54;;;;;;;4.72;2.10;;;23.50;99.90;;;;;;5092502;28;20067;-58
2023/06/05 11:58:29;;;;;;;4.97;2.20;;;23.20;99.90;;;;;;5092908;28;20467;-59
2023/06/05 12:01:21;;;;;;;3.20;2.55;;;23.30;99.90;;;;;;5092476;28;20486;-58
2023/06/05 12:03:49;;;;;;;2.92;2.47;;;23.50;99.70;;;;;;5030076;28;20128;-59
2023/06/05 12:06:17;;;;;;;3.33;2.20;;;23.50;99.90;;;;;;5030087;28;20122;-58
2023/06/05 12:08:44;;;;;;;3.25;2.42;;;23.70;99.90;;;;;;5030128;28;20050;-59
2023/06/05 12:11:21;;;;;;;3.70;2.28;;;23.70;99.90;;;;;;5030097;28;20045;-59
2023/06/05 12:13:54;;;;;;;4.50;1.92;;;23.80;99.90;;;;;;5029876;28;20052;-58
2023/06/05 12:16:34;;;;;;;2.15;1.92;;;23.80;99.90;;;;;;5029767;28;20045;-58
2023/06/05 12:19:00;;;;;;;4.80;1.88;;;23.80;99.90;;;;;;5029846;28;20101;-58
2023/06/05 12:21:27;;;;;;;3.25;1.55;;;23.90;99.90;;;;;;5029772;28;20052;-58
2023/06/05 12:24:02;;;;;;;2.78;1.85;;;23.90;99.90;;;;;;5029837;28;20393;-58
2023/06/05 12:26:32;;;;;;;4.25;2.60;;;23.90;99.90;;;;;;5030147;28;20045;-58
2023/06/05 12:29:05;;;;;;;2.40;2.03;;;23.90;99.90;;;;;;5033069;28;20053;-58
2023/06/05 12:31:35;;;;;;;3.80;2.40;;;23.80;99.90;;;;;;5033998;28;20069;-58
2023/06/05 12:34:03;;;;;;;2.97;2.33;;;23.40;99.90;;;;;;5033653;28;20050;-59
2023/06/05 12:36:29;;;;;;;3.17;2.10;;;23.60;99.90;;;;;;5033895;28;20044;-58
2023/06/05 12:38:55;;;;;;;4.28;3.20;;;23.70;99.90;;;;;;5017400;28;20057;-58
2023/06/05 12:41:21;;;;;;;5.35;2.58;;;23.40;99.90;;;;;;5075998;28;20063;-58
2023/06/05 12:44:02;;;;;;;3.22;2.13;;;23.60;99.90;;;;;;5095741;28;20036;-58
2023/06/05 12:46:28;;;;;;;5.97;2.63;;;23.60;99.90;;;;;;5095897;28;20367;-58
2023/06/05 12:48:54;;;;;;;2.38;2.17;;;23.50;99.90;;;;;;5095944;28;20032;-57
2023/06/05 12:51:20;;;;;;;3.67;2.85;;;23.20;99.90;;;;;;5095883;28;20040;-58
2023/06/05 12:53:46;;;;;;;3.00;2.28;;;23.30;99.90;;;;;;5095403;28;20578;-57